Giorgos Dracopoulos — 9HA3377 — position and weather

sailwx.info

Track history (hours):
 
Tides and Currents Weather Stations Pressure Air Temp Water Temp Dewpoint Dewpoint Depression Visibility Wind Speed Wind Dir Waves Ship Positions

Giorgos Dracopoulos

Last reported at 2017-Dec-25 06:16 UTC. Time now 2018-Jan-21 07:06 UTC.
Position N 38°05' W 000°04'.
Warning: this ship's position is 27 days out of date.

Length 199 m; draft 10.8 m.

Type: Cargo ship. MMSI: 229523000.

Date/timePositionNaut miles runAvg speedWind from/ knotsBaromVisibWave heightAir tempDewpointWater temp
2017-Dec-25 06:16N 38°05' W 000°04'413.9
2017-Dec-25 06:00N 38°01' W 000°07'2013.9
2017-Dec-25 04:34N 37°45' W 000°21'113.9
2017-Dec-25 04:30N 37°44' W 000°21'713.7
2017-Dec-25 04:00N 37°38' W 000°26'713.3
2017-Dec-25 03:30N 37°33' W 000°31'812.9
2017-Dec-25 02:51N 37°27' W 000°39'412.7
2017-Dec-25 02:30N 37°24' W 000°43'612.8
2017-Dec-25 02:00N 37°20' W 000°49'712.9
2017-Dec-25 01:28N 37°16' W 000°55'22112.2
2017-Dec-24 07:26N 36°00' W 005°14'613.7
2017-Dec-24 07:00N 35°59' W 005°21'713.4
2017-Dec-24 06:30N 35°57' W 005°29'27713.0
2017-Dec-23 09:15N 36°55' W 011°05'513.6
2017-Dec-23 08:51N 36°57' W 011°12'2813.3
2017-Dec-23 06:45N 37°02' W 011°46'1213.5
2017-Dec-23 05:52N 37°05' W 012°01'513.9
2017-Dec-23 05:30N 37°05' W 012°07'713.6
2017-Dec-23 05:00N 37°07' W 012°15'  
2017-Dec-20 22:32N 39°12' W 027°09'112.5
2017-Dec-20 22:29N 39°12' W 027°10'612.6
2017-Dec-20 22:00N 39°13' W 027°18'612.6
2017-Dec-20 21:30N 39°14' W 027°26'612.6
2017-Dec-20 21:00N 39°16' W 027°33'612.8
2017-Dec-20 20:30N 39°17' W 027°42'712.9
2017-Dec-20 20:00N 39°18' W 027°50'612.9
2017-Dec-20 19:30N 39°19' W 027°58'612.7
2017-Dec-20 19:00N 39°21' W 028°06'612.9
2017-Dec-20 18:31N 39°22' W 028°14'712.9
2017-Dec-20 18:00N 39°23' W 028°22'612.7
2017-Dec-20 17:30N 39°25' W 028°30'612.6
2017-Dec-20 17:00N 39°27' W 028°38'612.6
2017-Dec-20 16:30N 39°29' W 028°46'612.7
2017-Dec-20 16:01N 39°31' W 028°54'612.5
2017-Dec-20 15:30N 39°32' W 029°01'612.7
2017-Dec-20 15:00N 39°34' W 029°09'612.6
2017-Dec-20 14:30N 39°36' W 029°17'612.4
2017-Dec-20 14:00N 39°37' W 029°25'612.3
2017-Dec-20 13:30N 39°39' W 029°33'612.4
2017-Dec-20 13:00N 39°40' W 029°41'612.3
2017-Dec-20 12:30N 39°41' W 029°49'612.5
2017-Dec-20 12:00N 39°42' W 029°57'612.7
2017-Dec-20 11:30N 39°43' W 030°05'  
Track history (hours):
 
Tides and Currents Weather Stations Pressure Air Temp Water Temp Dewpoint Dewpoint Depression Visibility Wind Speed Wind Dir Waves Ship Positions

Giorgos Dracopoulos

Last reported at 2017-Dec-25 06:16 UTC. Time now 2018-Jan-21 07:06 UTC.
Position N 38°05' W 000°04'.
Warning: this ship's position is 27 days out of date.

Length 199 m; draft 10.8 m.

Type: Cargo ship. MMSI: 229523000.

Date/timePositionNaut miles runAvg speedWind from/ knotsBaromVisibWave heightAir tempDewpointWater temp
2017-Dec-25 06:16N 38°05' W 000°04'413.9
2017-Dec-25 06:00N 38°01' W 000°07'2013.9
2017-Dec-25 04:34N 37°45' W 000°21'113.9
2017-Dec-25 04:30N 37°44' W 000°21'713.7
2017-Dec-25 04:00N 37°38' W 000°26'713.3
2017-Dec-25 03:30N 37°33' W 000°31'812.9
2017-Dec-25 02:51N 37°27' W 000°39'412.7
2017-Dec-25 02:30N 37°24' W 000°43'612.8
2017-Dec-25 02:00N 37°20' W 000°49'712.9
2017-Dec-25 01:28N 37°16' W 000°55'22112.2
2017-Dec-24 07:26N 36°00' W 005°14'613.7
2017-Dec-24 07:00N 35°59' W 005°21'713.4
2017-Dec-24 06:30N 35°57' W 005°29'27713.0
2017-Dec-23 09:15N 36°55' W 011°05'513.6
2017-Dec-23 08:51N 36°57' W 011°12'2813.3
2017-Dec-23 06:45N 37°02' W 011°46'1213.5
2017-Dec-23 05:52N 37°05' W 012°01'513.9
2017-Dec-23 05:30N 37°05' W 012°07'713.6
2017-Dec-23 05:00N 37°07' W 012°15'  
2017-Dec-20 22:32N 39°12' W 027°09'112.5
2017-Dec-20 22:29N 39°12' W 027°10'612.6
2017-Dec-20 22:00N 39°13' W 027°18'612.6
2017-Dec-20 21:30N 39°14' W 027°26'612.6
2017-Dec-20 21:00N 39°16' W 027°33'612.8
2017-Dec-20 20:30N 39°17' W 027°42'712.9
2017-Dec-20 20:00N 39°18' W 027°50'612.9
2017-Dec-20 19:30N 39°19' W 027°58'612.7
2017-Dec-20 19:00N 39°21' W 028°06'612.9
2017-Dec-20 18:31N 39°22' W 028°14'712.9
2017-Dec-20 18:00N 39°23' W 028°22'612.7
2017-Dec-20 17:30N 39°25' W 028°30'612.6
2017-Dec-20 17:00N 39°27' W 028°38'612.6
2017-Dec-20 16:30N 39°29' W 028°46'612.7
2017-Dec-20 16:01N 39°31' W 028°54'612.5
2017-Dec-20 15:30N 39°32' W 029°01'612.7
2017-Dec-20 15:00N 39°34' W 029°09'612.6
2017-Dec-20 14:30N 39°36' W 029°17'612.4
2017-Dec-20 14:00N 39°37' W 029°25'612.3
2017-Dec-20 13:30N 39°39' W 029°33'612.4
2017-Dec-20 13:00N 39°40' W 029°41'612.3
2017-Dec-20 12:30N 39°41' W 029°49'612.5
2017-Dec-20 12:00N 39°42' W 029°57'612.7
2017-Dec-20 11:30N 39°43' W 030°05'  

Dump ship's entire track history